Airfield :
LOGIN :

Register | Disclaimer

   EN    FR    IT 

 










Legend :    VFR   Marginal VFR   IFR   Intensive IFR   Very Intensive IFR
Visi :
Ceiling :
>= 8 km
>= 3000ft
5 to 8 km
1000 to 3000 ft
1500m to 5 km
500 to 1000 ft
800 to 1500m
200 to 500 ft
< 800m
< 200 ft
Symbols :   Thunderstorms  Fog  Heavy snow  Heavy precipitations  Wind > 20 kt
SIGMETs :     Misc.  Thunderstorms  Icing  Turbulence  Mountain Waves  Volcanic Ashes






- Airport Elevation : 646 ft
- IATA code : VNO


EYVI - Vilnius int.

CURRENT METAR :
  • 202020Z 18005KT 9999 BKN043 01/M00 Q1019 R19/0///95 NOSIG

EXPIRED METARs :
  • 201950Z 17005KT 9999 BKN043 01/M00 Q1019 R19/0///95 NOSIG
  • 201920Z 17004KT 9999 BKN045 01/M00 Q1019 R19/0///95 NOSIG
  • 201850Z 17003KT 9999 SCT029 BKN046 01/M00 Q1019 R19/0///95 NOSIG
  • 201820Z 17003KT 9999 SCT023 BKN045 02/M00 Q1019 R19/0///95 NOSIG
  • 201750Z 18003KT 7000 SCT026 BKN047 01/M00 Q1019 R19/0///95 NOSIG

TAF TAF EYVI
Valid from the 20 at 18:00 until the 21 at 18:00 UTC


201727Z 2018/2118 VRB03KT 8000 SCT010 BKN015
TEMPO 2018/2024 3000 BR SCT005
PROB40
TEMPO 2100/2106 0800 FG VV002
BECMG 2106/2107 18014G24KT OVC010
TEMPO 2112/2118 4000 RASN BR BKN005



MET'MAP, your aeronautical weather chart ! - Copyright ORBIFLY December 2007 - Disclaimer

ORBIFLY MET'MAP TEAM :

Programming & Development : Alexandra Zaïnal
Concept & original design : Baudouin d'Aumeries
Assistance for programming : Marc-Olivier Méhu
Technical & hardware support : Manuel Goepfert

Contact : metmap@orbifly.com




SOURCES & CREDITS :

   NOAA